Time;durP1;ratioP1;P1;durP2;ratioP2;P2;SDS_P1;SDS_P2;PMS_P1;PMS_P2;Temp;Humidity;BMP_temperature;BMP_pressure;BME280_temperature;BME280_humidity;BME280_pressure;Samples;Min_cycle;Max_cycle;Signal;HPM_P1;HPM_P2
2022/07/11 00:00:00;;;;;;;2.50;1.80;;;15.20;68.70;;;;;;4856886;29;20216;-64
2022/07/11 00:02:26;;;;;;;2.67;1.70;;;15.10;68.60;;;;;;4883934;29;20238;-64
2022/07/11 00:04:52;;;;;;;1.60;1.50;;;15.10;69.50;;;;;;4884110;29;20216;-64
2022/07/11 00:07:17;;;;;;;2.17;1.60;;;15.10;69.70;;;;;;4868465;29;20184;-64
2022/07/11 00:09:43;;;;;;;1.67;1.37;;;15.00;69.60;;;;;;4868565;29;20227;-64
2022/07/11 00:12:10;;;;;;;1.70;1.53;;;15.00;70.00;;;;;;4868616;29;20230;-64
2022/07/11 00:14:39;;;;;;;2.50;1.37;;;15.00;70.30;;;;;;4884030;29;20191;-64
2022/07/11 00:17:06;;;;;;;1.43;1.33;;;15.00;70.70;;;;;;4884069;29;20200;-64
2022/07/11 00:19:31;;;;;;;1.70;1.30;;;15.00;70.70;;;;;;4900352;29;20243;-64
2022/07/11 00:21:57;;;;;;;2.47;1.43;;;14.90;70.60;;;;;;4872237;29;20231;-64
2022/07/11 00:24:24;;;;;;;1.70;1.30;;;14.90;70.20;;;;;;4863328;29;20199;-64
2022/07/11 00:26:50;;;;;;;1.40;1.30;;;14.80;70.90;;;;;;4864635;29;20208;-64
2022/07/11 00:29:16;;;;;;;2.07;1.70;;;14.90;71.10;;;;;;4865481;29;20323;-64
2022/07/11 00:31:43;;;;;;;2.47;1.60;;;15.00;71.70;;;;;;4878864;29;20215;-64
2022/07/11 00:34:09;;;;;;;2.90;1.53;;;15.00;71.00;;;;;;4861896;29;20203;-64
2022/07/11 00:36:34;;;;;;;2.33;1.63;;;15.00;71.00;;;;;;4884010;29;20200;-64
2022/07/11 00:39:00;;;;;;;2.07;1.83;;;14.90;71.60;;;;;;4868078;29;20199;-64
2022/07/11 00:41:25;;;;;;;2.20;1.50;;;15.00;71.40;;;;;;4883528;29;20196;-64
2022/07/11 00:43:57;;;;;;;2.47;1.50;;;15.10;70.80;;;;;;4867855;29;20192;-64
2022/07/11 00:46:24;;;;;;;3.30;1.70;;;15.20;71.00;;;;;;4867979;29;20199;-64
2022/07/11 00:48:50;;;;;;;3.23;1.83;;;15.10;71.10;;;;;;4883433;29;20196;-64
2022/07/11 00:51:18;;;;;;;3.73;1.90;;;15.00;71.20;;;;;;4880696;29;20188;-64
2022/07/11 00:53:44;;;;;;;2.43;1.50;;;15.00;71.50;;;;;;4874033;29;20255;-64
2022/07/11 00:56:10;;;;;;;1.90;1.70;;;14.90;72.10;;;;;;4882688;29;20200;-64
2022/07/11 00:58:36;;;;;;;2.20;1.57;;;14.80;72.90;;;;;;4867692;29;20188;-64
2022/07/11 01:01:03;;;;;;;1.80;1.70;;;14.80;72.90;;;;;;4852494;29;20232;-64
2022/07/11 01:03:28;;;;;;;4.37;1.73;;;14.90;73.10;;;;;;4864551;29;20196;-64
2022/07/11 01:05:54;;;;;;;1.70;1.40;;;14.90;72.40;;;;;;4861141;29;20196;-64
2022/07/11 01:08:20;;;;;;;1.70;1.60;;;14.80;72.50;;;;;;4851964;29;20204;-64
2022/07/11 01:10:46;;;;;;;2.23;1.50;;;14.90;72.10;;;;;;4852375;29;20294;-64
2022/07/11 01:13:12;;;;;;;3.37;2.03;;;14.80;72.70;;;;;;4883916;29;20200;-64
2022/07/11 01:15:38;;;;;;;2.00;1.53;;;14.80;72.10;;;;;;4867879;29;20203;-64
2022/07/11 01:18:04;;;;;;;3.13;1.87;;;14.90;72.30;;;;;;4867599;29;20206;-64
2022/07/11 01:20:30;;;;;;;1.77;1.67;;;14.90;72.30;;;;;;4857228;29;20223;-64
2022/07/11 01:23:03;;;;;;;1.93;1.70;;;14.70;72.60;;;;;;4867522;29;20263;-64
2022/07/11 01:25:30;;;;;;;1.80;1.60;;;14.70;72.30;;;;;;4887134;29;20243;-64
2022/07/11 01:28:03;;;;;;;3.10;1.70;;;14.80;72.60;;;;;;4888958;29;20195;-64
2022/07/11 01:30:31;;;;;;;2.40;1.60;;;14.60;73.50;;;;;;4882728;29;20196;-64
2022/07/11 01:32:57;;;;;;;3.33;1.60;;;14.50;73.00;;;;;;4882559;29;20228;-64
2022/07/11 01:35:24;;;;;;;1.80;1.70;;;14.40;73.70;;;;;;4882134;29;20195;-64
2022/07/11 01:37:50;;;;;;;3.00;1.93;;;14.40;74.10;;;;;;4864231;29;20257;-64
2022/07/11 01:40:16;;;;;;;2.37;1.83;;;14.30;74.10;;;;;;4858240;29;20224;-64
2022/07/11 01:42:42;;;;;;;2.27;1.67;;;14.50;74.00;;;;;;4882263;29;20188;-64
2022/07/11 01:45:12;;;;;;;2.23;1.80;;;14.40;74.40;;;;;;4867182;29;20189;-64
2022/07/11 01:47:39;;;;;;;2.47;1.70;;;14.50;74.00;;;;;;4852825;29;20286;-64
2022/07/11 01:50:05;;;;;;;2.37;1.50;;;14.50;73.60;;;;;;4882038;29;20286;-64
2022/07/11 01:52:31;;;;;;;2.07;1.87;;;14.50;74.00;;;;;;4870921;29;20204;-64
2022/07/11 01:54:56;;;;;;;2.10;1.90;;;14.40;74.40;;;;;;4876134;29;20199;-64
2022/07/11 01:57:22;;;;;;;1.60;1.50;;;14.30;74.80;;;;;;4870595;29;20235;-64
2022/07/11 01:59:48;;;;;;;2.27;1.80;;;14.30;74.50;;;;;;4867048;29;20234;-64
2022/07/11 02:02:14;;;;;;;2.60;1.50;;;14.30;74.10;;;;;;4851193;29;20299;-64
2022/07/11 02:04:40;;;;;;;1.93;1.83;;;14.30;74.20;;;;;;4882039;29;20225;-64
2022/07/11 02:07:06;;;;;;;2.03;1.53;;;14.20;74.40;;;;;;4882027;29;20219;-64
2022/07/11 02:09:32;;;;;;;2.13;1.93;;;14.20;74.70;;;;;;4872197;29;20197;-64
2022/07/11 02:11:57;;;;;;;2.07;1.87;;;14.10;74.70;;;;;;4849009;29;20207;-64
2022/07/11 02:14:23;;;;;;;4.53;1.60;;;14.10;75.00;;;;;;4859907;29;20290;-64
2022/07/11 02:16:49;;;;;;;2.10;1.70;;;14.10;75.60;;;;;;4863456;29;20291;-64
2022/07/11 02:19:15;;;;;;;1.90;1.70;;;14.10;75.50;;;;;;4839042;29;20258;-64
2022/07/11 02:21:41;;;;;;;2.93;1.60;;;14.10;75.10;;;;;;4860645;29;20202;-64
2022/07/11 02:24:07;;;;;;;3.87;1.80;;;14.10;75.40;;;;;;4866790;29;20291;-64
2022/07/11 02:26:32;;;;;;;2.13;1.80;;;14.10;75.40;;;;;;4850122;29;20226;-64
2022/07/11 02:28:58;;;;;;;2.77;2.00;;;14.10;75.20;;;;;;4869967;29;20314;-64
2022/07/11 02:31:24;;;;;;;2.10;1.90;;;14.00;75.40;;;;;;4844558;29;20215;-64
2022/07/11 02:33:49;;;;;;;2.93;1.77;;;13.90;75.90;;;;;;4847401;29;20203;-64
2022/07/11 02:36:15;;;;;;;2.67;2.00;;;13.90;76.20;;;;;;4855032;29;20203;-64
2022/07/11 02:38:42;;;;;;;3.27;1.70;;;13.90;76.10;;;;;;4851205;29;20204;-64
2022/07/11 02:41:07;;;;;;;3.00;1.87;;;14.10;75.50;;;;;;4881463;29;20296;-64
2022/07/11 02:43:33;;;;;;;1.63;1.53;;;14.10;75.40;;;;;;4850967;29;20236;-64
2022/07/11 02:45:59;;;;;;;1.70;1.60;;;14.00;74.40;;;;;;4871242;29;20204;-64
2022/07/11 02:48:25;;;;;;;2.33;1.50;;;14.10;74.20;;;;;;4848517;29;20207;-64
2022/07/11 02:50:51;;;;;;;2.40;1.80;;;14.10;74.60;;;;;;4869756;29;20206;-64
2022/07/11 02:53:17;;;;;;;1.70;1.60;;;14.10;75.10;;;;;;4851751;29;20208;-64
2022/07/11 02:55:42;;;;;;;1.90;1.57;;;13.90;75.50;;;;;;4859544;29;20298;-64
2022/07/11 02:58:08;;;;;;;2.47;1.63;;;14.00;74.90;;;;;;4869659;29;20220;-64
2022/07/11 03:00:34;;;;;;;4.20;1.93;;;13.80;75.00;;;;;;4853764;29;20255;-64
2022/07/11 03:02:59;;;;;;;1.80;1.50;;;13.80;75.30;;;;;;4852379;29;20253;-64
2022/07/11 03:05:25;;;;;;;1.80;1.70;;;13.80;75.50;;;;;;4854234;29;20221;-64
2022/07/11 03:07:51;;;;;;;3.47;1.80;;;13.80;75.80;;;;;;4858684;29;20268;-64
2022/07/11 03:10:16;;;;;;;2.57;1.67;;;13.80;75.40;;;;;;4864758;29;20200;-64
2022/07/11 03:12:43;;;;;;;1.57;1.40;;;13.90;74.80;;;;;;4857288;29;20208;-64
2022/07/11 03:15:09;;;;;;;3.83;1.80;;;13.80;75.40;;;;;;4863527;29;20203;-63
2022/07/11 03:17:35;;;;;;;2.70;1.60;;;13.90;74.70;;;;;;4868539;29;20267;-64
2022/07/11 03:20:02;;;;;;;4.67;1.83;;;13.90;74.30;;;;;;4884102;29;20300;-64
2022/07/11 03:22:28;;;;;;;2.00;1.60;;;13.80;74.70;;;;;;4854230;29;20199;-64
2022/07/11 03:24:53;;;;;;;1.60;1.40;;;13.80;74.40;;;;;;4901114;29;20243;-64
2022/07/11 03:27:20;;;;;;;2.07;1.80;;;13.80;74.00;;;;;;4851815;29;20205;-64
2022/07/11 03:29:46;;;;;;;1.97;1.87;;;13.80;74.40;;;;;;4884360;29;20315;-64
2022/07/11 03:32:12;;;;;;;1.77;1.67;;;13.70;74.50;;;;;;4849566;29;20299;-63
2022/07/11 03:34:37;;;;;;;1.70;1.60;;;13.60;74.80;;;;;;4864137;29;20208;-65
2022/07/11 03:37:04;;;;;;;3.47;2.13;;;13.50;74.70;;;;;;4885244;29;20230;-64
2022/07/11 03:39:30;;;;;;;3.07;1.80;;;13.50;75.10;;;;;;4901337;29;20218;-64
2022/07/11 03:41:55;;;;;;;2.07;1.70;;;13.40;75.60;;;;;;4882051;29;20200;-63
2022/07/11 03:44:21;;;;;;;1.90;1.50;;;13.40;75.70;;;;;;4865833;29;20192;-63
2022/07/11 03:46:47;;;;;;;2.27;1.57;;;13.30;75.90;;;;;;4884076;29;20199;-64
2022/07/11 03:49:13;;;;;;;1.53;1.40;;;13.40;76.10;;;;;;4884849;29;20223;-63
2022/07/11 03:51:39;;;;;;;1.83;1.67;;;13.40;75.90;;;;;;4875505;29;20226;-63
2022/07/11 03:54:06;;;;;;;1.57;1.40;;;13.30;76.10;;;;;;4868924;29;20201;-64
2022/07/11 03:56:31;;;;;;;1.43;1.33;;;13.50;75.50;;;;;;4883569;29;20211;-64
2022/07/11 03:58:57;;;;;;;3.30;1.90;;;13.50;75.90;;;;;;4900583;29;20415;-64
2022/07/11 04:01:23;;;;;;;3.47;2.00;;;13.40;76.20;;;;;;4875329;29;20251;-64
2022/07/11 04:03:48;;;;;;;2.67;1.70;;;13.40;76.00;;;;;;4866108;29;20243;-64
2022/07/11 04:06:14;;;;;;;1.97;1.50;;;13.50;75.90;;;;;;4868404;29;20204;-64
2022/07/11 04:08:40;;;;;;;1.50;1.40;;;13.50;76.20;;;;;;4850016;29;20200;-63
2022/07/11 04:11:06;;;;;;;3.13;1.50;;;13.60;75.40;;;;;;4884143;29;20191;-64
2022/07/11 04:13:32;;;;;;;3.70;1.70;;;13.60;75.60;;;;;;4900073;29;20191;-63
2022/07/11 04:15:58;;;;;;;1.83;1.50;;;13.50;75.80;;;;;;4883146;29;20200;-64
2022/07/11 04:18:23;;;;;;;2.77;1.80;;;13.60;75.90;;;;;;4860400;29;20212;-63
2022/07/11 04:20:49;;;;;;;2.40;1.93;;;13.60;75.90;;;;;;4869856;29;20770;-64
2022/07/11 04:23:15;;;;;;;1.83;1.73;;;13.60;76.20;;;;;;4883256;29;20187;-63
2022/07/11 04:25:42;;;;;;;1.60;1.47;;;13.60;76.20;;;;;;4868684;29;20192;-63
2022/07/11 04:28:07;;;;;;;1.80;1.70;;;13.70;76.10;;;;;;4875219;29;20278;-64
2022/07/11 04:30:33;;;;;;;3.27;1.87;;;13.80;75.80;;;;;;4865480;29;20353;-63
2022/07/11 04:32:59;;;;;;;1.67;1.47;;;13.80;75.80;;;;;;4860377;29;20203;-63
2022/07/11 04:35:27;;;;;;;3.03;1.73;;;13.70;76.00;;;;;;4865096;29;20200;-63
2022/07/11 04:37:53;;;;;;;2.27;1.90;;;13.80;75.80;;;;;;4862324;29;20204;-63
2022/07/11 04:40:20;;;;;;;2.03;1.63;;;13.80;76.10;;;;;;4883001;29;20233;-63
2022/07/11 04:42:46;;;;;;;1.70;1.60;;;13.90;76.10;;;;;;4882407;29;20203;-64
2022/07/11 04:45:12;;;;;;;3.00;2.10;;;14.10;75.60;;;;;;4852028;29;20315;-63
2022/07/11 04:47:37;;;;;;;3.63;2.37;;;14.00;75.30;;;;;;4865324;29;20191;-63
2022/07/11 04:50:04;;;;;;;1.90;1.80;;;14.00;75.30;;;;;;4868945;29;20290;-63
2022/07/11 04:52:29;;;;;;;2.47;1.77;;;14.10;75.50;;;;;;4864315;29;20202;-63
2022/07/11 04:54:55;;;;;;;1.47;1.37;;;14.10;75.40;;;;;;4882821;29;20200;-63
2022/07/11 04:57:21;;;;;;;2.60;1.50;;;14.20;75.30;;;;;;4867921;29;20247;-64
2022/07/11 04:59:46;;;;;;;1.93;1.70;;;14.20;75.10;;;;;;4878995;29;20221;-64
2022/07/11 05:02:12;;;;;;;2.03;1.80;;;14.20;75.10;;;;;;4852150;29;20193;-64
2022/07/11 05:04:37;;;;;;;2.43;1.70;;;14.30;74.90;;;;;;4854486;29;20192;-64
2022/07/11 05:07:03;;;;;;;1.70;1.57;;;14.30;75.40;;;;;;4863415;29;20208;-64
2022/07/11 05:09:29;;;;;;;2.03;1.60;;;14.30;74.80;;;;;;4881529;29;20200;-64
2022/07/11 05:11:55;;;;;;;2.47;2.10;;;14.30;75.40;;;;;;4845673;29;20276;-64
2022/07/11 05:14:20;;;;;;;2.90;1.80;;;14.40;74.50;;;;;;4861717;29;20219;-64
2022/07/11 05:16:46;;;;;;;2.77;2.10;;;14.40;74.10;;;;;;4868180;29;20225;-64
2022/07/11 05:19:12;;;;;;;2.63;1.57;;;14.50;74.00;;;;;;4850875;29;20291;-63
2022/07/11 05:21:38;;;;;;;2.63;1.70;;;14.70;72.40;;;;;;4876963;29;20191;-63
2022/07/11 05:24:04;;;;;;;3.53;1.80;;;14.70;71.10;;;;;;4861839;29;20202;-64
2022/07/11 05:26:30;;;;;;;2.73;1.73;;;14.80;69.60;;;;;;4866167;29;20200;-64
2022/07/11 05:28:55;;;;;;;2.00;1.80;;;14.80;70.50;;;;;;4851302;29;20240;-64
2022/07/11 05:31:21;;;;;;;2.53;1.70;;;14.90;70.40;;;;;;4847240;29;20206;-64
2022/07/11 05:33:46;;;;;;;4.23;2.17;;;14.90;69.20;;;;;;4839282;29;20261;-64
2022/07/11 05:36:12;;;;;;;7.83;2.27;;;14.90;68.30;;;;;;4847761;29;20283;-64
2022/07/11 05:38:38;;;;;;;3.67;2.00;;;15.00;68.30;;;;;;4854853;29;20200;-64
2022/07/11 05:41:04;;;;;;;4.10;2.40;;;14.90;67.00;;;;;;4849676;29;20216;-64
2022/07/11 05:43:30;;;;;;;6.93;2.60;;;15.00;67.90;;;;;;4855161;29;20644;-64
2022/07/11 05:45:56;;;;;;;4.37;2.20;;;15.00;66.50;;;;;;4876339;29;20219;-64
2022/07/11 05:48:22;;;;;;;5.33;2.13;;;15.00;65.80;;;;;;4867192;29;20266;-64
2022/07/11 05:50:47;;;;;;;6.47;2.03;;;15.10;68.60;;;;;;4864631;29;20251;-64
2022/07/11 05:53:13;;;;;;;3.07;1.77;;;15.10;69.30;;;;;;4864675;29;20235;-63
2022/07/11 05:55:38;;;;;;;2.60;1.70;;;15.20;70.30;;;;;;4850844;29;20204;-63
2022/07/11 05:58:04;;;;;;;5.57;2.20;;;15.20;70.40;;;;;;4867186;29;20203;-65
2022/07/11 06:00:30;;;;;;;7.23;2.03;;;15.20;71.00;;;;;;4870343;29;20223;-64
2022/07/11 06:02:55;;;;;;;6.20;2.20;;;15.20;71.40;;;;;;4882059;29;20203;-64
2022/07/11 06:05:22;;;;;;;7.97;2.63;;;15.30;71.90;;;;;;4882386;29;20203;-64
2022/07/11 06:10:32;;;;;;;4.83;1.77;;;15.30;68.10;;;;;;4864124;29;20204;-64
2022/07/11 06:12:58;;;;;;;5.53;1.77;;;15.40;68.20;;;;;;4862583;29;20212;-64
2022/07/11 06:15:24;;;;;;;4.20;1.90;;;15.40;68.00;;;;;;4864123;29;20208;-64
2022/07/11 06:17:50;;;;;;;7.37;2.00;;;15.40;68.10;;;;;;4880674;29;20256;-64
2022/07/11 06:20:16;;;;;;;6.73;2.10;;;15.40;68.80;;;;;;4874903;29;20220;-64
2022/07/11 06:22:41;;;;;;;5.80;2.17;;;15.40;68.40;;;;;;4868108;29;20337;-64
2022/07/11 06:25:08;;;;;;;3.37;1.87;;;15.50;68.80;;;;;;4848737;29;20204;-64
2022/07/11 06:27:35;;;;;;;4.43;1.80;;;15.50;69.50;;;;;;4847047;29;20279;-64
2022/07/11 06:30:01;;;;;;;3.80;1.87;;;15.40;68.60;;;;;;4867628;29;20356;-64
2022/07/11 06:32:26;;;;;;;4.10;2.20;;;15.50;68.60;;;;;;4867906;29;20290;-63
2022/07/11 06:34:52;;;;;;;2.93;1.80;;;15.50;68.90;;;;;;4866031;29;20200;-63
2022/07/11 06:37:18;;;;;;;3.50;2.07;;;15.50;69.90;;;;;;4858774;29;20286;-71
2022/07/11 06:39:44;;;;;;;8.67;1.50;;;15.50;69.70;;;;;;4865472;29;20299;-68
2022/07/11 06:42:10;;;;;;;3.93;1.57;;;15.60;68.80;;;;;;4868995;29;20196;-68
2022/07/11 06:44:35;;;;;;;5.80;1.60;;;15.60;68.60;;;;;;4859152;29;20228;-63
2022/07/11 06:47:01;;;;;;;4.70;1.47;;;15.60;68.70;;;;;;4865735;29;20203;-64
2022/07/11 06:49:26;;;;;;;2.87;1.60;;;15.70;68.20;;;;;;4867701;29;20192;-63
2022/07/11 06:51:52;;;;;;;1.40;1.10;;;15.70;67.10;;;;;;4856021;29;20225;-63
2022/07/11 06:54:18;;;;;;;3.50;1.57;;;15.80;64.30;;;;;;4867351;29;20224;-63
2022/07/11 06:56:43;;;;;;;2.70;1.20;;;15.90;64.40;;;;;;4862814;29;20295;-63
2022/07/11 06:59:09;;;;;;;4.23;2.00;;;16.00;64.20;;;;;;4868950;29;20199;-63
2022/07/11 07:01:35;;;;;;;3.63;1.37;;;16.00;66.40;;;;;;4868840;29;20198;-63
2022/07/11 07:04:00;;;;;;;4.00;1.30;;;16.10;65.60;;;;;;4865624;29;20232;-63
2022/07/11 07:06:26;;;;;;;3.23;1.73;;;16.20;65.90;;;;;;4852186;29;20199;-63
2022/07/11 07:08:52;;;;;;;3.67;1.50;;;16.20;66.30;;;;;;4856334;29;20197;-63
2022/07/11 07:11:19;;;;;;;2.53;1.20;;;16.30;65.00;;;;;;4861525;29;20269;-64
2022/07/11 07:13:45;;;;;;;2.07;1.60;;;16.30;61.20;;;;;;4860148;29;20200;-64
2022/07/11 07:16:11;;;;;;;1.47;1.10;;;16.30;62.30;;;;;;4871533;29;20192;-64
2022/07/11 07:18:42;;;;;;;1.50;1.17;;;16.40;59.90;;;;;;4850195;29;20200;-64
2022/07/11 07:21:08;;;;;;;1.97;1.00;;;16.40;61.10;;;;;;4864966;29;20223;-64
2022/07/11 07:23:33;;;;;;;1.23;0.90;;;16.40;62.40;;;;;;4877580;29;20244;-64
2022/07/11 07:25:59;;;;;;;3.57;1.33;;;16.40;62.40;;;;;;4868406;29;20196;-64
2022/07/11 07:28:28;;;;;;;2.23;1.00;;;16.50;62.70;;;;;;4883363;29;20232;-64
2022/07/11 07:30:54;;;;;;;3.83;1.13;;;16.50;59.50;;;;;;4881567;29;20284;-64
2022/07/11 07:33:19;;;;;;;2.13;0.80;;;16.60;61.10;;;;;;4848395;29;20287;-64
2022/07/11 07:35:45;;;;;;;2.10;1.10;;;16.60;62.60;;;;;;4882004;29;20215;-64
2022/07/11 07:38:12;;;;;;;2.00;1.03;;;16.60;64.10;;;;;;4850683;29;20254;-64
2022/07/11 07:40:38;;;;;;;1.30;0.83;;;16.60;64.70;;;;;;4862911;29;20220;-64
2022/07/11 07:43:04;;;;;;;2.97;1.20;;;16.60;65.30;;;;;;4877194;29;20200;-63
2022/07/11 07:45:29;;;;;;;2.60;0.90;;;16.60;65.50;;;;;;4866734;29;20287;-61
2022/07/11 07:47:55;;;;;;;2.03;1.00;;;16.60;66.20;;;;;;4867318;29;20196;-62
2022/07/11 07:50:22;;;;;;;1.57;1.13;;;16.70;63.10;;;;;;4854915;29;20203;-62
2022/07/11 07:52:47;;;;;;;1.63;1.00;;;16.80;64.00;;;;;;4841743;29;20252;-63
2022/07/11 07:55:13;;;;;;;1.87;1.03;;;16.80;57.60;;;;;;4880466;29;20192;-65
2022/07/11 07:57:39;;;;;;;2.20;1.10;;;16.90;59.80;;;;;;4883597;29;20202;-64
2022/07/11 08:02:50;;;;;;;1.10;0.97;;;17.10;58.40;;;;;;4862521;29;20198;-64
2022/07/11 08:05:17;;;;;;;2.77;1.20;;;17.30;57.30;;;;;;4866115;29;20196;-63
2022/07/11 08:07:43;;;;;;;2.87;1.00;;;17.30;57.50;;;;;;4851013;29;20185;-63
2022/07/11 08:10:09;;;;;;;1.00;0.80;;;17.40;54.50;;;;;;4848712;29;20272;-63
2022/07/11 08:12:34;;;;;;;2.33;0.70;;;17.60;54.30;;;;;;4866313;29;20195;-65
2022/07/11 08:15:00;;;;;;;3.00;0.67;;;17.80;49.70;;;;;;4849527;29;20228;-64
2022/07/11 08:17:26;;;;;;;0.60;0.60;;;17.90;51.40;;;;;;4861022;29;20257;-62
2022/07/11 08:19:51;;;;;;;0.90;0.70;;;18.00;48.10;;;;;;4838418;29;20212;-62
2022/07/11 08:22:17;;;;;;;0.60;0.60;;;18.20;47.20;;;;;;4848869;29;20193;-62
2022/07/11 08:24:43;;;;;;;1.43;0.70;;;18.40;46.60;;;;;;4848546;29;20207;-64
2022/07/11 08:27:09;;;;;;;3.27;0.90;;;18.50;46.80;;;;;;4851780;29;20196;-62
2022/07/11 08:29:35;;;;;;;2.47;0.80;;;18.50;47.80;;;;;;4851280;29;20248;-64
2022/07/11 08:32:00;;;;;;;0.83;0.80;;;18.60;45.00;;;;;;4866693;29;20199;-63
2022/07/11 08:34:26;;;;;;;1.10;0.90;;;18.60;47.50;;;;;;4863112;29;20276;-64
2022/07/11 08:36:52;;;;;;;0.90;0.70;;;18.50;49.60;;;;;;4847602;29;20204;-64
2022/07/11 08:39:17;;;;;;;3.40;1.00;;;18.50;47.30;;;;;;4857840;29;20200;-64
2022/07/11 08:41:44;;;;;;;0.43;0.40;;;18.50;51.00;;;;;;4866336;29;20232;-64
2022/07/11 08:44:11;;;;;;;1.27;0.70;;;18.50;46.30;;;;;;4880448;29;20234;-63
2022/07/11 08:46:40;;;;;;;4.47;0.83;;;18.50;45.20;;;;;;4882280;29;20219;-63
2022/07/11 08:49:06;;;;;;;2.83;0.80;;;18.60;45.20;;;;;;4867065;29;20251;-62
2022/07/11 08:51:36;;;;;;;1.00;0.90;;;18.80;44.80;;;;;;4862791;29;20193;-63
2022/07/11 08:54:02;;;;;;;0.60;0.60;;;18.80;44.40;;;;;;4854203;29;20256;-64
2022/07/11 08:56:29;;;;;;;0.80;0.60;;;18.90;44.40;;;;;;4881581;29;20207;-64
2022/07/11 08:58:57;;;;;;;0.57;0.40;;;18.90;41.70;;;;;;4866152;29;20205;-64
2022/07/11 09:01:37;;;;;;;0.40;0.40;;;18.90;43.20;;;;;;4881520;29;20223;-64
2022/07/11 09:04:04;;;;;;;1.67;0.50;;;18.80;45.20;;;;;;4880372;29;20196;-64
2022/07/11 09:06:39;;;;;;;0.80;0.73;;;18.80;44.80;;;;;;5130633;27;20556;-64
2022/07/11 09:09:04;;;;;;;0.70;0.47;;;18.80;44.70;;;;;;5071203;28;20651;-64
2022/07/11 09:11:52;;;;;;;0.80;0.53;;;18.80;44.80;;;;;;5046024;28;20280;-64
2022/07/11 09:14:37;;;;;;;0.70;0.50;;;18.90;43.40;;;;;;5102315;28;20570;-64
2022/07/11 09:17:05;;;;;;;0.63;0.50;;;18.90;42.80;;;;;;5104031;28;20203;-64
2022/07/11 09:19:37;;;;;;;0.93;0.83;;;18.80;44.10;;;;;;5073427;28;20197;-64
2022/07/11 09:27:47;;;;;;;14.40;2.23;;;19.00;47.90;;;;;;5110061;28;20196;-64
2022/07/11 09:30:19;;;;;;;6.83;1.00;;;19.30;43.50;;;;;;5084674;28;20425;-64
2022/07/11 09:33:01;;;;;;;1.23;0.70;;;19.30;47.90;;;;;;5069475;28;20197;-62
2022/07/11 09:35:31;;;;;;;0.93;0.50;;;19.20;45.70;;;;;;5092703;28;20215;-63
2022/07/11 09:37:57;;;;;;;2.27;0.60;;;19.20;47.10;;;;;;5086517;28;20191;-62
2022/07/11 09:40:23;;;;;;;2.50;0.50;;;19.10;48.50;;;;;;5091633;28;20267;-62
2022/07/11 09:42:51;;;;;;;0.60;0.50;;;19.00;49.10;;;;;;5071228;28;20198;-62
2022/07/11 09:45:19;;;;;;;1.27;0.60;;;19.10;49.90;;;;;;5078661;28;20239;-65
2022/07/11 09:47:50;;;;;;;1.80;0.53;;;19.10;48.10;;;;;;5107329;28;20184;-62
2022/07/11 09:50:23;;;;;;;1.13;0.47;;;19.10;50.30;;;;;;5092142;28;20188;-63
2022/07/11 09:53:18;;;;;;;0.87;0.50;;;19.20;48.00;;;;;;5076888;28;20178;-63
2022/07/11 09:55:48;;;;;;;0.83;0.40;;;19.30;45.20;;;;;;5073634;28;20219;-63
2022/07/11 09:58:15;;;;;;;0.53;0.53;;;19.30;47.50;;;;;;5108874;28;20202;-63
2022/07/11 10:00:43;;;;;;;1.43;0.40;;;19.40;44.50;;;;;;5090016;28;20275;-63
2022/07/11 10:03:10;;;;;;;0.53;0.53;;;19.40;47.90;;;;;;5073045;28;20208;-62
2022/07/11 10:05:37;;;;;;;0.50;0.30;;;19.40;45.90;;;;;;5099643;28;20229;-63
2022/07/11 10:08:04;;;;;;;1.00;0.50;;;19.50;44.30;;;;;;5107173;28;20183;-62
2022/07/11 10:10:31;;;;;;;0.50;0.50;;;19.40;42.20;;;;;;5089925;28;20224;-63
2022/07/11 10:12:57;;;;;;;0.37;0.37;;;19.40;43.60;;;;;;5081307;28;20197;-63
2022/07/11 10:15:35;;;;;;;0.47;0.47;;;19.50;45.10;;;;;;5090515;28;20196;-62
2022/07/11 10:18:11;;;;;;;0.40;0.40;;;19.60;39.80;;;;;;5089293;28;20185;-65
2022/07/11 10:20:59;;;;;;;1.47;0.50;;;19.70;40.50;;;;;;5085756;28;20191;-65
2022/07/11 10:23:49;;;;;;;0.43;0.43;;;19.70;40.40;;;;;;5088089;28;20193;-64
2022/07/11 10:26:21;;;;;;;1.90;0.93;;;19.80;39.00;;;;;;5081249;28;20228;-63
2022/07/11 10:28:52;;;;;;;1.80;1.70;;;19.90;40.40;;;;;;5093776;28;20186;-64
2022/07/11 10:31:23;;;;;;;0.20;0.20;;;20.00;41.90;;;;;;5081878;28;20191;-63
2022/07/11 10:34:06;;;;;;;1.00;0.33;;;20.10;42.60;;;;;;5094249;28;20185;-63
2022/07/11 10:36:41;;;;;;;0.70;0.47;;;20.20;38.60;;;;;;5066704;28;20217;-64
2022/07/11 10:39:12;;;;;;;0.53;0.40;;;20.30;42.20;;;;;;5085682;28;20191;-64
2022/07/11 10:41:38;;;;;;;0.40;0.40;;;20.20;40.80;;;;;;5088665;28;20252;-64
2022/07/11 10:44:04;;;;;;;0.30;0.30;;;20.20;42.50;;;;;;5073023;28;20256;-65
2022/07/11 10:46:31;;;;;;;0.43;0.43;;;20.30;43.30;;;;;;5069582;28;20264;-63
2022/07/11 10:49:14;;;;;;;0.40;0.40;;;20.40;44.40;;;;;;5093198;28;20280;-67
2022/07/11 10:51:49;;;;;;;0.73;0.70;;;20.40;45.10;;;;;;5082859;28;20239;-60
2022/07/11 10:54:36;;;;;;;0.93;0.53;;;20.40;44.00;;;;;;5089880;28;20196;-62
2022/07/11 10:57:39;;;;;;;3.53;0.40;;;20.40;42.70;;;;;;5092054;28;20283;-59
2022/07/11 11:00:09;;;;;;;0.63;0.40;;;20.40;42.80;;;;;;5093229;28;20188;-58
2022/07/11 11:03:01;;;;;;;0.30;0.30;;;20.50;42.90;;;;;;5086950;28;20278;-59
2022/07/11 11:05:56;;;;;;;0.30;0.30;;;20.60;41.00;;;;;;5089252;28;20266;-60
2022/07/11 11:08:38;;;;;;;2.23;0.30;;;20.60;38.60;;;;;;5069607;28;20243;-58
2022/07/11 11:11:07;;;;;;;0.63;0.43;;;20.70;38.90;;;;;;5074064;28;20226;-70
2022/07/11 11:13:37;;;;;;;0.40;0.40;;;20.80;38.30;;;;;;5085245;28;20689;-62
2022/07/11 11:16:25;;;;;;;0.63;0.50;;;21.00;39.20;;;;;;5089652;28;20189;-63
2022/07/11 11:18:51;;;;;;;0.33;0.33;;;21.00;37.80;;;;;;5084508;28;20224;-62
2022/07/11 11:21:18;;;;;;;0.47;0.47;;;21.20;38.10;;;;;;5075917;28;20217;-62
2022/07/11 11:24:02;;;;;;;0.63;0.40;;;21.20;39.10;;;;;;5091893;28;20250;-61
2022/07/11 11:26:51;;;;;;;0.63;0.50;;;21.10;36.80;;;;;;5092194;28;20200;-61
2022/07/11 11:29:25;;;;;;;0.40;0.40;;;21.30;38.60;;;;;;5074984;28;20178;-62
2022/07/11 11:31:57;;;;;;;0.50;0.50;;;21.30;39.40;;;;;;5075777;28;20262;-61
2022/07/11 11:34:23;;;;;;;0.20;0.20;;;21.20;38.10;;;;;;5093399;28;20185;-60
2022/07/11 11:37:01;;;;;;;0.93;0.30;;;21.20;38.90;;;;;;5090475;28;20189;-60
2022/07/11 11:39:33;;;;;;;0.30;0.30;;;21.30;41.80;;;;;;5073718;28;20196;-60
2022/07/11 11:42:13;;;;;;;0.30;0.30;;;21.40;39.50;;;;;;5083337;28;20214;-60
2022/07/11 11:44:55;;;;;;;0.43;0.40;;;21.50;40.30;;;;;;5085620;28;20209;-62
2022/07/11 11:47:22;;;;;;;0.30;0.30;;;21.70;41.90;;;;;;5085508;28;20177;-61
2022/07/11 11:49:48;;;;;;;4.00;0.40;;;21.80;41.80;;;;;;5091735;28;20181;-64
2022/07/11 11:52:15;;;;;;;0.30;0.30;;;21.80;39.40;;;;;;5058713;28;20181;-64
2022/07/11 11:54:41;;;;;;;2.00;0.60;;;22.00;39.80;;;;;;5073315;28;20201;-63
2022/07/11 11:57:13;;;;;;;1.90;0.70;;;22.10;40.80;;;;;;5073071;28;20185;-64
2022/07/11 11:59:41;;;;;;;0.93;0.77;;;22.20;41.30;;;;;;5076009;28;20204;-61
2022/07/11 12:02:06;;;;;;;4.33;0.80;;;22.20;39.70;;;;;;5075062;28;20185;-62
2022/07/11 12:04:35;;;;;;;0.73;0.70;;;22.30;41.30;;;;;;5068744;28;20240;-61
2022/07/11 12:07:02;;;;;;;0.60;0.50;;;22.50;39.00;;;;;;5026048;28;20185;-61
2022/07/11 12:09:47;;;;;;;1.17;0.57;;;22.70;40.90;;;;;;5036026;28;20193;-61
2022/07/11 12:15:01;;;;;;;1.53;0.70;;;23.00;40.20;;;;;;5057196;28;20227;-62
2022/07/11 12:17:29;;;;;;;0.50;0.50;;;23.00;39.60;;;;;;5053468;28;20181;-62
2022/07/11 12:19:56;;;;;;;1.47;0.60;;;22.90;38.50;;;;;;5038300;28;20201;-62
2022/07/11 12:22:22;;;;;;;2.90;0.80;;;22.90;41.80;;;;;;5055425;28;20182;-62
2022/07/11 12:24:49;;;;;;;1.13;0.70;;;23.30;38.30;;;;;;5052277;28;20207;-62
2022/07/11 12:27:25;;;;;;;1.50;0.90;;;23.40;42.20;;;;;;5042440;28;20232;-62
2022/07/11 12:29:51;;;;;;;1.20;0.67;;;23.60;41.80;;;;;;5050654;28;20215;-62
2022/07/11 12:32:24;;;;;;;1.63;0.90;;;23.70;39.20;;;;;;5050379;28;20188;-62
2022/07/11 12:34:49;;;;;;;0.93;0.80;;;23.60;39.90;;;;;;5043445;28;20182;-62
2022/07/11 12:37:20;;;;;;;1.03;0.90;;;24.30;38.40;;;;;;5051191;28;20190;-62
2022/07/11 12:39:56;;;;;;;1.03;0.60;;;25.30;36.80;;;;;;5037685;28;20254;-62
2022/07/11 12:42:25;;;;;;;0.90;0.60;;;26.00;34.00;;;;;;5038524;28;20193;-62
2022/07/11 12:45:08;;;;;;;1.17;0.70;;;25.80;34.00;;;;;;5044891;28;20241;-62
2022/07/11 12:47:40;;;;;;;1.03;0.60;;;25.70;34.90;;;;;;5053376;28;20190;-62
2022/07/11 12:50:12;;;;;;;1.03;0.60;;;26.00;36.10;;;;;;5044501;28;20240;-62
2022/07/11 12:52:40;;;;;;;3.90;1.07;;;26.70;34.60;;;;;;5052279;28;20232;-61
2022/07/11 12:55:07;;;;;;;2.23;0.80;;;26.50;33.20;;;;;;5047671;28;20183;-66
2022/07/11 12:57:33;;;;;;;1.53;0.70;;;25.90;34.20;;;;;;5053296;28;20209;-63
2022/07/11 13:00:16;;;;;;;0.80;0.70;;;25.50;35.20;;;;;;5037048;28;20189;-66
2022/07/11 13:02:49;;;;;;;2.47;0.60;;;25.50;35.70;;;;;;5036975;28;20197;-66
2022/07/11 13:05:15;;;;;;;3.03;0.90;;;25.70;36.30;;;;;;5048601;28;20233;-67